createdAt,value
2017-09-22T00:01:41.275Z,98940.16
2017-09-22T00:04:08.529Z,98930.85
2017-09-22T00:06:34.966Z,98933.20
2017-09-22T00:09:01.357Z,98934.22
2017-09-22T00:11:27.735Z,98930.16
2017-09-22T00:13:54.677Z,98925.27
2017-09-22T00:16:21.063Z,98925.00
2017-09-22T00:18:47.536Z,98928.19
2017-09-22T00:21:13.983Z,98921.66
2017-09-22T00:23:40.521Z,98915.19
2017-09-22T00:26:06.955Z,98910.36
2017-09-22T00:28:33.390Z,98908.63
2017-09-22T00:30:59.825Z,98910.36
2017-09-22T00:33:26.364Z,98910.25
2017-09-22T00:35:52.797Z,98907.05
2017-09-22T00:38:19.232Z,98904.54
2017-09-22T00:40:45.667Z,98900.62
2017-09-22T00:43:12.203Z,98898.25
2017-09-22T00:45:38.638Z,98895.78
2017-09-22T00:48:05.020Z,98893.08
2017-09-22T00:50:31.406Z,98897.88
2017-09-22T00:52:57.944Z,98890.93
2017-09-22T00:55:24.381Z,98894.50
2017-09-22T00:57:50.815Z,98892.05
2017-09-22T01:00:17.248Z,98894.45
2017-09-22T01:02:43.786Z,98887.59
2017-09-22T01:05:10.221Z,98889.23
2017-09-22T01:07:36.666Z,98900.95
2017-09-22T01:10:03.040Z,98905.06
2017-09-22T01:12:29.520Z,98906.34
2017-09-22T01:14:55.961Z,98911.75
2017-09-22T01:17:22.395Z,98905.95
2017-09-22T01:19:48.830Z,98907.97
2017-09-22T01:22:15.264Z,98900.66
2017-09-22T01:24:41.698Z,98902.39
2017-09-22T01:27:08.850Z,98892.92
2017-09-22T01:29:35.285Z,98900.14
2017-09-22T01:32:01.721Z,98897.67
2017-09-22T01:34:28.257Z,98896.80
2017-09-22T01:36:54.691Z,98895.00
2017-09-22T01:39:21.075Z,98892.77
2017-09-22T01:41:47.553Z,98896.84
2017-09-22T01:44:14.716Z,98894.45
2017-09-22T01:46:41.149Z,98900.90
2017-09-22T01:49:07.583Z,98902.25
2017-09-22T01:51:34.019Z,98908.02
2017-09-22T01:54:00.555Z,98898.16
2017-09-22T01:56:26.990Z,98904.27
2017-09-22T01:58:53.429Z,98897.11
2017-09-22T02:01:20.578Z,98900.98
2017-09-22T02:03:47.012Z,98908.91
2017-09-22T02:06:13.430Z,98902.83
2017-09-22T02:08:39.984Z,98902.94
2017-09-22T02:11:06.422Z,98907.42
2017-09-22T02:13:32.957Z,98908.32
2017-09-22T02:15:59.372Z,98917.95
2017-09-22T02:18:26.541Z,98913.33
2017-09-22T02:20:52.929Z,98913.42
2017-09-22T02:23:19.413Z,98913.56
2017-09-22T02:25:45.799Z,98911.80
2017-09-22T02:28:12.283Z,98914.03
2017-09-22T02:30:38.718Z,98909.23
2017-09-22T02:33:05.254Z,98913.69
2017-09-22T02:35:32.305Z,98916.70
2017-09-22T02:37:58.739Z,98914.69
2017-09-22T02:40:25.174Z,98915.15
2017-09-22T02:42:51.610Z,98912.87
2017-09-22T02:45:18.044Z,98912.75
2017-09-22T02:47:44.524Z,98916.44
2017-09-22T02:50:10.973Z,98911.03
2017-09-22T02:52:38.167Z,98917.03
2017-09-22T02:55:04.603Z,98915.31
2017-09-22T02:57:30.987Z,98917.44
2017-09-22T02:59:57.371Z,98922.97
2017-09-22T03:02:23.732Z,98922.05
2017-09-22T03:04:50.222Z,98928.44
2017-09-22T03:07:16.674Z,98923.84
2017-09-22T03:09:43.827Z,98924.84
2017-09-22T03:12:10.248Z,98923.20
2017-09-22T03:14:36.696Z,98924.47
2017-09-22T03:17:03.131Z,98924.91
2017-09-22T03:19:29.565Z,98927.95
2017-09-22T03:21:56.002Z,98931.44
2017-09-22T03:24:22.538Z,98932.07
2017-09-22T03:26:49.587Z,98928.97
2017-09-22T03:29:16.127Z,98928.79
2017-09-22T03:31:42.661Z,98930.66
2017-09-22T03:34:09.097Z,98931.01
2017-09-22T03:36:35.532Z,98936.27
2017-09-22T03:39:02.025Z,98930.72
2017-09-22T03:41:28.504Z,98932.75
2017-09-22T03:43:55.655Z,98937.19
2017-09-22T03:46:22.091Z,98940.70
2017-09-22T03:48:48.526Z,98936.05
2017-09-22T03:51:14.965Z,98938.69
2017-09-22T03:53:41.395Z,98932.68
2017-09-22T03:56:07.829Z,98935.42
2017-09-22T03:58:34.368Z,98942.50
2017-09-22T04:01:01.418Z,98938.70
2017-09-22T04:03:27.953Z,98945.44
2017-09-22T04:05:54.389Z,98947.59
2017-09-22T04:08:20.823Z,98952.30
2017-09-22T04:10:47.259Z,98951.42
2017-09-22T04:13:13.796Z,98949.69
2017-09-22T04:15:40.345Z,98946.91
2017-09-22T04:18:07.472Z,98946.84
2017-09-22T04:20:33.919Z,98944.53
2017-09-22T04:23:00.459Z,98933.44
2017-09-22T04:25:26.893Z,98950.00
2017-09-22T04:27:53.328Z,98948.34
2017-09-22T04:30:19.762Z,98947.50
2017-09-22T04:32:46.300Z,98948.03
2017-09-22T04:35:13.349Z,98946.67
2017-09-22T04:37:39.783Z,98944.53
2017-09-22T04:40:06.218Z,98940.71
2017-09-22T04:42:32.755Z,98943.02
2017-09-22T04:44:59.191Z,98944.77
2017-09-22T04:47:25.625Z,98940.23
2017-09-22T04:49:52.061Z,98941.56
2017-09-22T04:52:19.314Z,98942.47
2017-09-22T04:54:45.749Z,98945.55
2017-09-22T04:57:12.184Z,98937.42
2017-09-22T04:59:38.618Z,98936.17
2017-09-22T05:02:04.997Z,98929.09
2017-09-22T05:04:31.476Z,98936.72
2017-09-22T05:06:57.923Z,98929.57
2017-09-22T05:09:24.936Z,98936.65
2017-09-22T05:11:51.410Z,98933.75
2017-09-22T05:14:17.946Z,98927.19
2017-09-22T05:16:44.379Z,98917.25
2017-09-22T05:19:10.817Z,98918.88
2017-09-22T05:21:37.249Z,98928.05
2017-09-22T05:24:03.791Z,98927.91
2017-09-22T05:26:30.839Z,98929.66
2017-09-22T05:28:57.273Z,98917.33
2017-09-22T05:31:23.625Z,98919.05
2017-09-22T05:33:50.140Z,98922.67
2017-09-22T05:36:16.780Z,98914.53
2017-09-22T05:38:43.218Z,98920.64
2017-09-22T05:41:09.657Z,98923.98
2017-09-22T05:43:36.292Z,98923.29
2017-09-22T05:46:02.727Z,98923.59
2017-09-22T05:48:29.161Z,98924.41
2017-09-22T05:50:55.596Z,98916.52
2017-09-22T05:53:22.162Z,98919.53
2017-09-22T05:55:48.670Z,98922.97
2017-09-22T05:58:15.105Z,98925.43
2017-09-22T06:00:41.538Z,98926.70
2017-09-22T06:03:08.076Z,98928.06
2017-09-22T06:05:34.511Z,98929.91
2017-09-22T06:08:00.895Z,98932.13
2017-09-22T06:10:27.483Z,98935.48
2017-09-22T06:12:54.021Z,98940.98
2017-09-22T06:15:20.458Z,98943.45
2017-09-22T06:17:46.949Z,98937.88
2017-09-22T06:20:13.427Z,98935.25
2017-09-22T06:22:40.272Z,98939.17
2017-09-22T06:25:07.219Z,98938.20
2017-09-22T06:27:34.165Z,98939.63
2017-09-22T06:30:00.621Z,98945.70
2017-09-22T06:32:27.650Z,98943.16
2017-09-22T06:34:54.084Z,98942.34
2017-09-22T06:37:20.532Z,98938.28
2017-09-22T06:39:46.904Z,98941.55
2017-09-22T06:42:13.594Z,98945.98
2017-09-22T06:44:40.030Z,98941.64
2017-09-22T06:47:06.566Z,98941.38
2017-09-22T06:49:32.952Z,98941.13
2017-09-22T06:52:00.153Z,98942.66
2017-09-22T06:54:26.690Z,98936.50
2017-09-22T06:56:53.075Z,98944.30
2017-09-22T06:59:19.561Z,98939.83
2017-09-22T07:01:46.122Z,98943.15
2017-09-22T07:04:12.634Z,98928.05
2017-09-22T07:06:39.070Z,98929.63
2017-09-22T07:09:06.118Z,98932.98
2017-09-22T07:11:32.553Z,98932.61
2017-09-22T07:13:59.091Z,98941.09
2017-09-22T07:16:25.526Z,98943.11
2017-09-22T07:18:52.063Z,98941.98
2017-09-22T07:21:18.498Z,98945.42
2017-09-22T07:23:44.986Z,98942.77
2017-09-22T07:26:11.368Z,98933.10
2017-09-22T07:28:37.802Z,98928.27
2017-09-22T07:31:04.237Z,98937.43
2017-09-22T07:33:31.494Z,98925.84
2017-09-22T07:35:58.029Z,98927.94
2017-09-22T07:38:24.464Z,98934.37
2017-09-22T07:40:50.883Z,98925.27
2017-09-22T07:43:17.436Z,98927.44
2017-09-22T07:45:43.975Z,98928.61
2017-09-22T07:48:10.411Z,98926.17
2017-09-22T07:50:36.844Z,98921.20
2017-09-22T07:53:03.371Z,98937.56
2017-09-22T07:55:29.814Z,98935.05
2017-09-22T07:57:56.352Z,98944.80
2017-09-22T08:00:22.788Z,98921.34
2017-09-22T08:02:49.642Z,98919.14
2017-09-22T08:05:16.057Z,98917.58
2017-09-22T08:07:42.706Z,98917.92
2017-09-22T08:10:09.141Z,98914.98
2017-09-22T08:12:35.577Z,98912.91
2017-09-22T08:15:02.421Z,98913.19
2017-09-22T08:17:28.909Z,98922.80
2017-09-22T08:19:55.392Z,98911.91
2017-09-22T08:22:22.033Z,98914.18
2017-09-22T08:24:48.678Z,98917.30
2017-09-22T08:27:15.106Z,98923.48
2017-09-22T08:29:41.646Z,98908.53
2017-09-22T08:32:08.497Z,98906.00
2017-09-22T08:34:35.028Z,98906.21
2017-09-22T08:37:01.521Z,98909.64
2017-09-22T08:39:28.306Z,98905.03
2017-09-22T08:41:54.742Z,98905.66
2017-09-22T08:44:21.385Z,98900.05
2017-09-22T08:46:47.815Z,98910.10
2017-09-22T08:49:14.249Z,98897.03
2017-09-22T08:51:40.685Z,98899.34
2017-09-22T08:54:07.427Z,98896.93
2017-09-22T08:56:33.861Z,98896.67
2017-09-22T08:59:00.296Z,98897.48
2017-09-22T09:01:26.732Z,98896.95
2017-09-22T09:03:53.269Z,98893.38
2017-09-22T09:06:19.703Z,98889.39
2017-09-22T09:08:46.237Z,98881.52
2017-09-22T09:11:12.675Z,98889.98
2017-09-22T09:13:39.219Z,98884.06
2017-09-22T09:16:05.648Z,98884.06
2017-09-22T09:18:32.082Z,98893.92
2017-09-22T09:20:58.517Z,98893.95
2017-09-22T09:23:25.056Z,98893.55
2017-09-22T09:25:51.490Z,98903.34
2017-09-22T09:28:17.925Z,98889.84
2017-09-22T09:30:44.360Z,98895.16
2017-09-22T09:33:10.898Z,98894.33
2017-09-22T09:35:37.332Z,98886.15
2017-09-22T09:38:03.766Z,98899.04
2017-09-22T09:40:30.200Z,98893.27
2017-09-22T09:42:56.738Z,98893.63
2017-09-22T09:45:23.603Z,98885.81
2017-09-22T09:47:50.224Z,98895.13
2017-09-22T09:50:16.608Z,98902.64
2017-09-22T09:52:43.196Z,98900.34
2017-09-22T09:55:09.724Z,98901.88
2017-09-22T09:57:36.271Z,98896.27
2017-09-22T10:00:03.229Z,98896.48
2017-09-22T10:02:29.754Z,98894.48
2017-09-22T10:04:56.499Z,98899.61
2017-09-22T10:07:23.234Z,98899.28
2017-09-22T10:09:49.677Z,98902.50
2017-09-22T10:12:16.536Z,98906.31
2017-09-22T10:14:43.157Z,98908.45
2017-09-22T10:17:10.007Z,98910.54
2017-09-22T10:19:36.645Z,98908.56
2017-09-22T10:22:03.180Z,98918.59
2017-09-22T10:24:29.630Z,98914.18
2017-09-22T10:26:56.748Z,98909.28
2017-09-22T10:29:23.193Z,98905.28
2017-09-22T10:31:49.634Z,98910.34
2017-09-22T10:34:16.150Z,98908.75
2017-09-22T10:36:42.606Z,98909.66
2017-09-22T10:39:09.042Z,98901.95
2017-09-22T10:41:35.476Z,98908.41
2017-09-22T10:44:01.967Z,98904.02
2017-09-22T10:46:28.448Z,98910.36
2017-09-22T10:48:54.883Z,98904.42
2017-09-22T10:51:21.268Z,98907.77
2017-09-22T10:53:47.752Z,98906.44
2017-09-22T10:56:14.290Z,98914.06
2017-09-22T10:58:40.828Z,98914.18
2017-09-22T11:01:07.262Z,98918.00
2017-09-22T11:03:33.800Z,98921.22
2017-09-22T11:06:00.337Z,98922.29
2017-09-22T11:08:26.771Z,98919.23
2017-09-22T11:10:53.207Z,98908.91
2017-09-22T11:13:19.732Z,98913.67
2017-09-22T11:15:46.789Z,98910.42
2017-09-22T11:18:13.229Z,98914.98
2017-09-22T11:20:39.664Z,98914.39
2017-09-22T11:23:06.201Z,98915.18
2017-09-22T11:25:32.739Z,98914.78
2017-09-22T11:27:59.172Z,98908.20
2017-09-22T11:30:26.017Z,98922.45
2017-09-22T11:32:52.558Z,98916.95
2017-09-22T11:35:18.949Z,98922.20
2017-09-22T11:37:46.087Z,98927.49
2017-09-22T11:40:12.576Z,98921.52
2017-09-22T11:42:39.112Z,98925.98
2017-09-22T11:45:05.549Z,98923.84
2017-09-22T11:47:32.085Z,98919.73
2017-09-22T11:49:58.520Z,98924.05
2017-09-22T11:52:24.896Z,98925.98
2017-09-22T11:54:52.106Z,98921.86
2017-09-22T11:57:18.541Z,98917.78
2017-09-22T11:59:44.937Z,98925.97
2017-09-22T12:02:11.410Z,98930.33
2017-09-22T12:04:37.846Z,98929.22
2017-09-22T12:07:04.282Z,98928.94
2017-09-22T12:09:30.717Z,98927.34
2017-09-22T12:11:57.150Z,98938.41
2017-09-22T12:14:23.585Z,98931.71
2017-09-22T12:16:50.839Z,98934.58
2017-09-22T12:19:17.692Z,98933.31
2017-09-22T12:21:44.326Z,98938.19
2017-09-22T12:24:11.165Z,98943.37
2017-09-22T12:26:37.602Z,98941.01
2017-09-22T12:29:04.127Z,98938.45
2017-09-22T12:31:31.087Z,98940.76
2017-09-22T12:33:57.624Z,98946.92
2017-09-22T12:36:24.067Z,98947.81
2017-09-22T12:38:50.768Z,98940.37
2017-09-22T12:41:17.338Z,98937.52
2017-09-22T12:43:43.875Z,98942.97
2017-09-22T12:46:10.875Z,98944.28
2017-09-22T12:48:37.360Z,98955.20
2017-09-22T12:51:03.796Z,98960.89
2017-09-22T12:53:30.332Z,98952.66
2017-09-22T12:55:56.767Z,98943.91
2017-09-22T12:58:23.159Z,98943.05
2017-09-22T13:00:49.534Z,98937.91
2017-09-22T13:03:16.071Z,98946.09
2017-09-22T13:05:42.507Z,98952.75
2017-09-22T13:08:08.891Z,98952.61
2017-09-22T13:10:36.085Z,98953.19
2017-09-22T13:13:02.528Z,98955.41
2017-09-22T13:15:28.917Z,98954.78
2017-09-22T13:17:55.398Z,98953.97
2017-09-22T13:20:21.832Z,98961.84
2017-09-22T13:22:48.371Z,98962.30
2017-09-22T13:25:14.776Z,98961.94
2017-09-22T13:27:41.943Z,98957.77
2017-09-22T13:30:08.387Z,98957.55
2017-09-22T13:32:34.884Z,98959.26
2017-09-22T13:35:01.346Z,98959.03
2017-09-22T13:37:27.799Z,98971.92
2017-09-22T13:39:54.336Z,98963.56
2017-09-22T13:42:20.770Z,98970.27
2017-09-22T13:44:48.025Z,98973.62
2017-09-22T13:47:14.460Z,98966.89
2017-09-22T13:49:40.849Z,98967.41
2017-09-22T13:52:07.331Z,98965.50
2017-09-22T13:54:33.867Z,98968.16
2017-09-22T13:57:00.301Z,98963.84
2017-09-22T13:59:26.735Z,98975.58
2017-09-22T14:01:53.888Z,98970.72
2017-09-22T14:04:20.425Z,98972.88
2017-09-22T14:06:46.862Z,98974.79
2017-09-22T14:09:13.294Z,98973.89
2017-09-22T14:11:39.730Z,98975.91
2017-09-22T14:14:06.267Z,98982.61
2017-09-22T14:16:32.701Z,98978.95
2017-09-22T14:18:59.956Z,98983.11
2017-09-22T14:21:26.380Z,98978.39
2017-09-22T14:23:52.887Z,98978.06
2017-09-22T14:26:19.363Z,98984.48
2017-09-22T14:28:45.737Z,98972.09
2017-09-22T14:31:12.223Z,98975.25
2017-09-22T14:33:38.771Z,98984.93
2017-09-22T14:36:05.922Z,98981.55
2017-09-22T14:38:32.362Z,98982.98
2017-09-22T14:40:58.792Z,98984.11
2017-09-22T14:43:25.279Z,98990.27
2017-09-22T14:45:51.765Z,98991.34
2017-09-22T14:48:18.203Z,98986.83
2017-09-22T14:50:44.584Z,98997.62
2017-09-22T14:53:11.889Z,99000.56
2017-09-22T14:55:38.320Z,98996.56
2017-09-22T14:58:04.757Z,99007.67
2017-09-22T15:00:31.182Z,99008.88
2017-09-22T15:02:57.731Z,98999.84
2017-09-22T15:05:24.164Z,99008.55
2017-09-22T15:07:50.584Z,99016.84
2017-09-22T15:10:17.751Z,99014.38
2017-09-22T15:12:44.288Z,99028.33
2017-09-22T15:15:10.722Z,99029.67
2017-09-22T15:17:37.210Z,99036.68
2017-09-22T15:20:03.695Z,99029.58
2017-09-22T15:22:30.130Z,99040.91
2017-09-22T15:24:56.564Z,99034.98
2017-09-22T15:27:23.620Z,99045.97
2017-09-22T15:29:50.048Z,99046.19
2017-09-22T15:32:16.432Z,99047.86
2017-09-22T15:34:42.872Z,99059.69
2017-09-22T15:37:09.251Z,99058.55
2017-09-22T15:39:35.685Z,99059.12
2017-09-22T15:42:02.204Z,99062.17
2017-09-22T15:44:28.760Z,99065.31
2017-09-22T15:46:55.195Z,99064.42
2017-09-22T15:49:21.644Z,99070.58
2017-09-22T15:51:48.022Z,99070.87
2017-09-22T15:54:14.491Z,99067.28
2017-09-22T15:56:40.890Z,99070.01
2017-09-22T15:59:07.323Z,99067.65
2017-09-22T16:01:34.521Z,99066.57
2017-09-22T16:04:01.059Z,99073.99
2017-09-22T16:06:27.493Z,99067.50
2017-09-22T16:08:53.930Z,99070.55
2017-09-22T16:11:20.365Z,99073.44
2017-09-22T16:13:46.852Z,99072.69
2017-09-22T16:16:13.336Z,99070.28
2017-09-22T16:18:40.487Z,99078.39
2017-09-22T16:21:06.875Z,99076.47
2017-09-22T16:23:33.356Z,99074.40
2017-09-22T16:25:59.792Z,99079.89
2017-09-22T16:28:26.329Z,99084.09
2017-09-22T16:30:52.765Z,99077.27
2017-09-22T16:33:19.301Z,99077.36
2017-09-22T16:35:46.780Z,99076.86
2017-09-22T16:38:13.195Z,99082.07
2017-09-22T16:40:39.630Z,99084.24
2017-09-22T16:43:06.168Z,99086.48
2017-09-22T16:45:32.602Z,99089.55
2017-09-22T16:47:59.037Z,99093.92
2017-09-22T16:50:25.472Z,99089.34
2017-09-22T16:52:52.623Z,99092.06
2017-09-22T16:55:19.058Z,99097.93
2017-09-22T16:57:45.493Z,99094.05
2017-09-22T17:00:12.012Z,99096.45
2017-09-22T17:02:38.568Z,99100.52
2017-09-22T17:05:05.003Z,99107.45
2017-09-22T17:07:31.436Z,99110.29
2017-09-22T17:09:57.975Z,99116.34
2017-09-22T17:12:24.409Z,99121.48
2017-09-22T17:14:50.800Z,99117.31
2017-09-22T17:17:17.280Z,99120.31
2017-09-22T17:19:43.715Z,99123.43
2017-09-22T17:22:10.148Z,99121.65
2017-09-22T17:24:36.561Z,99124.70
2017-09-22T17:27:03.838Z,99132.06
2017-09-22T17:29:30.272Z,99132.58
2017-09-22T17:31:56.666Z,99137.63
2017-09-22T17:34:23.148Z,99139.41
2017-09-22T17:36:49.576Z,99137.88
2017-09-22T17:39:16.017Z,99141.36
2017-09-22T17:41:42.447Z,99146.66
2017-09-22T17:44:09.606Z,99148.41
2017-09-22T17:46:36.020Z,99144.22
2017-09-22T17:49:02.439Z,99146.45
2017-09-22T17:51:28.861Z,99150.81
2017-09-22T17:53:55.321Z,99144.05
2017-09-22T17:56:21.719Z,99148.52
2017-09-22T17:58:48.206Z,99140.91
2017-09-22T18:01:15.348Z,99151.00
2017-09-22T18:03:41.848Z,99153.23
2017-09-22T18:06:08.331Z,99155.04
2017-09-22T18:08:34.773Z,99164.05
2017-09-22T18:11:01.201Z,99163.95
2017-09-22T18:13:27.738Z,99164.48
2017-09-22T18:15:54.173Z,99166.71
2017-09-22T18:18:21.428Z,99164.81
2017-09-22T18:20:47.862Z,99165.05
2017-09-22T18:23:14.400Z,99161.59
2017-09-22T18:25:40.784Z,99158.79
2017-09-22T18:28:07.270Z,99163.36
2017-09-22T18:30:33.705Z,99158.94
2017-09-22T18:33:00.243Z,99161.42
2017-09-22T18:35:27.393Z,99161.93
2017-09-22T18:37:53.827Z,99166.12
2017-09-22T18:40:20.263Z,99172.01
2017-09-22T18:42:46.801Z,99168.32
2017-09-22T18:45:13.236Z,99173.26
2017-09-22T18:47:39.655Z,99167.73
2017-09-22T18:50:06.109Z,99163.47
2017-09-22T18:52:33.256Z,99163.66
2017-09-22T18:54:59.694Z,99168.19
2017-09-22T18:57:26.230Z,99163.75
2017-09-22T18:59:52.593Z,99171.78
2017-09-22T19:02:19.091Z,99165.47
2017-09-22T19:04:45.487Z,99171.44
2017-09-22T19:07:11.969Z,99165.50
2017-09-22T19:09:39.120Z,99171.55
2017-09-22T19:12:05.555Z,99164.44
2017-09-22T19:14:32.055Z,99162.63
2017-09-22T19:16:58.526Z,99161.03
2017-09-22T19:19:25.177Z,99162.73
2017-09-22T19:21:51.707Z,99165.38
2017-09-22T19:24:18.243Z,99165.25
2017-09-22T19:26:45.393Z,99164.80
2017-09-22T19:29:11.828Z,99165.69
2017-09-22T19:31:38.266Z,99167.89
2017-09-22T19:34:04.803Z,99163.83
2017-09-22T19:36:31.241Z,99165.63
2017-09-22T19:38:57.669Z,99169.38
2017-09-22T19:41:24.113Z,99164.22
2017-09-22T19:43:51.358Z,99164.84
2017-09-22T19:46:17.897Z,99171.16
2017-09-22T19:48:44.330Z,99166.38
2017-09-22T19:51:10.766Z,99171.27
2017-09-22T19:53:37.304Z,99171.52
2017-09-22T19:56:03.741Z,99172.97
2017-09-22T19:58:30.172Z,99176.69
2017-09-22T20:00:57.429Z,99173.86
2017-09-22T20:03:23.962Z,99174.28
2017-09-22T20:05:50.398Z,99176.58
2017-09-22T20:08:16.783Z,99172.56
2017-09-22T20:10:43.252Z,99170.62
2017-09-22T20:13:09.805Z,99166.92
2017-09-22T20:15:36.240Z,99171.09
2017-09-22T20:18:03.392Z,99172.44
2017-09-22T20:20:29.827Z,99165.87
2017-09-22T20:22:56.363Z,99167.93
2017-09-22T20:25:22.800Z,99171.69
2017-09-22T20:27:49.244Z,99175.55
2017-09-22T20:30:15.668Z,99169.02
2017-09-22T20:32:42.156Z,99168.38
2017-09-22T20:35:09.357Z,99166.58
2017-09-22T20:37:35.795Z,99164.92
2017-09-22T20:40:02.183Z,99165.61
2017-09-22T20:42:28.661Z,99168.38
2017-09-22T20:44:55.098Z,99164.44
2017-09-22T20:47:21.533Z,99166.73
2017-09-22T20:49:47.966Z,99171.70
2017-09-22T20:52:15.220Z,99166.76
2017-09-22T20:54:41.654Z,99170.00
2017-09-22T20:57:08.179Z,99170.38
2017-09-22T20:59:34.627Z,99168.11
2017-09-22T21:02:01.062Z,99164.70
2017-09-22T21:04:27.497Z,99155.02
2017-09-22T21:06:53.930Z,99160.94
2017-09-22T21:09:21.083Z,99161.30
2017-09-22T21:11:47.518Z,99159.83
2017-09-22T21:14:14.052Z,99162.00
2017-09-22T21:16:40.491Z,99156.64
2017-09-22T21:19:06.925Z,99162.73
2017-09-22T21:21:33.359Z,99167.44
2017-09-22T21:23:59.897Z,99170.27
2017-09-22T21:26:26.914Z,99169.91
2017-09-22T21:28:53.381Z,99171.95
2017-09-22T21:31:19.816Z,99164.08
2017-09-22T21:33:46.353Z,99171.30
2017-09-22T21:36:12.788Z,99163.23
2017-09-22T21:38:39.222Z,99170.84
2017-09-22T21:41:05.658Z,99162.58
2017-09-22T21:43:32.913Z,99172.83
2017-09-22T21:45:59.327Z,99171.50
2017-09-22T21:48:25.777Z,99170.95
2017-09-22T21:50:52.216Z,99169.89
2017-09-22T21:53:18.755Z,99170.46
2017-09-22T21:55:45.151Z,99168.75
2017-09-22T21:58:11.625Z,99166.34
2017-09-22T22:00:38.784Z,99165.95
2017-09-22T22:03:05.313Z,99165.76
2017-09-22T22:05:31.702Z,99167.02
2017-09-22T22:07:58.183Z,99170.34
2017-09-22T22:10:24.618Z,99170.79
2017-09-22T22:12:51.144Z,99173.41
2017-09-22T22:15:17.591Z,99174.66
2017-09-22T22:17:44.743Z,99180.02
2017-09-22T22:20:11.178Z,99185.34
2017-09-22T22:22:37.713Z,99185.95
2017-09-22T22:25:04.149Z,99185.44
2017-09-22T22:27:30.583Z,99185.64
2017-09-22T22:29:57.017Z,99188.92
2017-09-22T22:32:23.453Z,99183.91
2017-09-22T22:34:50.604Z,99182.28
2017-09-22T22:37:16.992Z,99181.91
2017-09-22T22:39:43.473Z,99184.16
2017-09-22T22:42:09.879Z,99183.21
2017-09-22T22:44:36.321Z,99181.20
2017-09-22T22:47:02.678Z,99177.81
2017-09-22T22:49:29.110Z,99174.98
2017-09-22T22:51:56.365Z,99174.80
2017-09-22T22:54:22.904Z,99170.79
2017-09-22T22:56:49.337Z,99175.49
2017-09-22T22:59:15.873Z,99177.34
2017-09-22T23:01:42.309Z,99178.06
2017-09-22T23:04:08.798Z,99173.87
2017-09-22T23:06:35.278Z,99176.27
2017-09-22T23:09:02.438Z,99168.84
2017-09-22T23:11:28.827Z,99169.36
2017-09-22T23:13:55.302Z,99169.95
2017-09-22T23:16:21.687Z,99168.84
2017-09-22T23:18:48.172Z,99169.95
2017-09-22T23:21:14.607Z,99170.14
2017-09-22T23:23:41.145Z,99178.41
2017-09-22T23:26:08.297Z,99178.05
2017-09-22T23:28:34.731Z,99179.95
2017-09-22T23:31:01.166Z,99183.11
2017-09-22T23:33:27.704Z,99189.12
2017-09-22T23:35:54.138Z,99192.31
2017-09-22T23:38:20.504Z,99196.74
2017-09-22T23:40:46.966Z,99194.14
2017-09-22T23:43:14.159Z,99206.55
2017-09-22T23:45:40.595Z,99201.23
2017-09-22T23:48:07.030Z,99201.33
2017-09-22T23:50:33.466Z,99200.23
2017-09-22T23:53:00.004Z,99194.45
2017-09-22T23:55:26.437Z,99192.66
2017-09-22T23:57:52.788Z,99190.39
